Autopride — CQQE — position and weather

sailwx.info

Track history (hours):
 
Tides and Currents Weather Stations Pressure Air Temp Water Temp Dewpoint Dewpoint Depression Visibility Wind Speed Wind Dir Waves Ship Positions

Autopride

Last reported at 2017-Dec-11 09:30 UTC. Time now 2017-Dec-11 09:46 UTC.
Position N 59°53' E 010°46'.

Length 125 m; draft 5.7 m.

Type: Cargo ship. MMSI: 255801560.

Date/timePositionNaut miles runAvg speedWind from/ knotsBaromVisibWave heightAir tempDewpointWater temp
2017-Dec-11 09:30N 59°53' E 010°46'0 0.0
2017-Dec-11 09:00N 59°53' E 010°46'0 0.0
2017-Dec-11 08:30N 59°53' E 010°46'0 0.0
2017-Dec-11 08:00N 59°53' E 010°46'0 0.0
2017-Dec-11 07:30N 59°53' E 010°46'0 0.0
2017-Dec-11 07:01N 59°53' E 010°46'0 0.0
2017-Dec-11 06:30N 59°53' E 010°46'0 0.0
2017-Dec-11 06:00N 59°53' E 010°46'0 0.0
2017-Dec-11 05:30N 59°53' E 010°46'0 0.0
2017-Dec-11 05:00N 59°53' E 010°46'0 0.0
2017-Dec-11 04:30N 59°53' E 010°46'4 7.5
2017-Dec-11 04:00N 59°52' E 010°39'815.5
2017-Dec-11 03:30N 59°45' E 010°34'713.2
2017-Dec-11 03:01N 59°38' E 010°38'917.8
2017-Dec-11 02:31N 59°30' E 010°35'918.0
2017-Dec-11 02:01N 59°21' E 010°36'918.5
2017-Dec-11 01:31N 59°12' E 010°39'918.5
2017-Dec-11 01:01N 59°03' E 010°35'713.6
2017-Dec-11 00:30N 58°57' E 010°28'611.6
2017-Dec-11 00:00N 58°52' E 010°22'611.9
2017-Dec-10 23:30N 58°47' E 010°16'611.7
2017-Dec-10 23:00N 58°42' E 010°09'612.3
2017-Dec-10 22:30N 58°37' E 010°02'3911.2
2017-Dec-10 19:01N 58°06' E 009°19'312.5
2017-Dec-10 18:48N 58°04' E 009°14'412.4
2017-Dec-10 18:29N 58°02' E 009°08'15211.6
2017-Dec-10 05:27N 55°42' E 007°23'916.9
2017-Dec-10 04:56N 55°33' E 007°21'1216.6
2017-Dec-10 04:11N 55°21' E 007°23'316.3
2017-Dec-10 04:00N 55°18' E 007°24'816.5
2017-Dec-10 03:30N 55°10' E 007°25'816.4
2017-Dec-10 03:00N 55°01' E 007°25'816.3
2017-Dec-10 02:30N 54°53' E 007°26'1116.1
2017-Dec-10 01:51N 54°43' E 007°28'5115.2
2017-Dec-09 22:31N 53°53' E 007°47'015.5
2017-Dec-09 22:30N 53°53' E 007°47'815.5
2017-Dec-09 22:00N 53°51' E 008°00'815.4
2017-Dec-09 21:30N 53°46' E 008°10'1019.4
2017-Dec-09 21:00N 53°40' E 008°23'917.9
2017-Dec-09 20:30N 53°34' E 008°33'1 1.2
2017-Dec-09 20:00N 53°33' E 008°34'1 0.9
2017-Dec-09 19:28N 53°34' E 008°34'0 0.0
2017-Dec-09 18:58N 53°34' E 008°34'0 0.0
2017-Dec-09 18:28N 53°34' E 008°34'0 0.0
2017-Dec-09 17:58N 53°34' E 008°34'0 0.0
2017-Dec-09 17:25N 53°34' E 008°34'0 0.0
2017-Dec-09 16:58N 53°34' E 008°34'0 0.0
2017-Dec-09 16:28N 53°34' E 008°34'0 0.0
2017-Dec-09 15:58N 53°34' E 008°34'0 0.0
2017-Dec-09 15:28N 53°34' E 008°34'0 0.0
2017-Dec-09 14:58N 53°34' E 008°34'0 0.0
2017-Dec-09 14:28N 53°34' E 008°34'0 0.0
2017-Dec-09 13:58N 53°34' E 008°34'0 0.0
2017-Dec-09 13:28N 53°34' E 008°34'0 0.0
2017-Dec-09 13:00N 53°34' E 008°34'0 0.0
2017-Dec-09 12:30N 53°34' E 008°34'0 0.0
2017-Dec-09 12:00N 53°34' E 008°34'0 0.0
2017-Dec-09 11:30N 53°34' E 008°34'0 0.0
2017-Dec-09 11:00N 53°34' E 008°34'0 0.0
2017-Dec-09 10:30N 53°34' E 008°34'0 0.0
2017-Dec-09 10:01N 53°34' E 008°34'0 0.0
2017-Dec-09 09:30N 53°34' E 008°34'0 0.0
2017-Dec-09 09:00N 53°34' E 008°34'0 0.0
2017-Dec-09 08:30N 53°34' E 008°34'0 0.0
2017-Dec-09 08:00N 53°34' E 008°34'0 0.0
2017-Dec-09 07:30N 53°34' E 008°34'1 1.0
2017-Dec-09 07:00N 53°33' E 008°34'1 1.7
2017-Dec-09 06:30N 53°34' E 008°33'713.8
2017-Dec-09 06:00N 53°39' E 008°24'816.7
2017-Dec-09 05:31N 53°44' E 008°14'713.5
2017-Dec-09 05:00N 53°49' E 008°06'816.0
2017-Dec-09 04:30N 53°52' E 007°53'815.9
2017-Dec-09 04:00N 53°55' E 007°40'5112.1
2017-Dec-08 23:49N 54°45' E 007°25'512.3
2017-Dec-08 23:24N 54°50' E 007°25'512.5
2017-Dec-08 23:00N 54°55' E 007°25'612.7
2017-Dec-08 22:30N 55°01' E 007°25'612.6
2017-Dec-08 22:00N 55°07' E 007°25'612.5
2017-Dec-08 21:30N 55°14' E 007°24'612.2
2017-Dec-08 21:01N 55°20' E 007°23'612.2
2017-Dec-08 20:30N 55°26' E 007°22'611.9
2017-Dec-08 20:01N 55°32' E 007°21'711.8
2017-Dec-08 19:27N 55°38' E 007°21'612.0
2017-Dec-08 18:59N 55°44' E 007°24'612.1
2017-Dec-08 18:30N 55°49' E 007°26'812.1
2017-Dec-08 17:52N 55°57' E 007°29'512.0
2017-Dec-08 17:29N 56°01' E 007°31'17414.0
2017-Dec-08 05:01N 58°33' E 010°08'014.1
2017-Dec-08 05:00N 58°34' E 010°08'714.1
2017-Dec-08 04:30N 58°39' E 010°16'713.4
2017-Dec-08 04:01N 58°45' E 010°23'714.7
2017-Dec-08 03:30N 58°52' E 010°28'713.5
2017-Dec-08 03:00N 58°58' E 010°32'713.5
2017-Dec-08 02:30N 59°05' E 010°36'815.9
2017-Dec-08 02:00N 59°13' E 010°38'917.7
2017-Dec-08 01:31N 59°21' E 010°34'918.3
2017-Dec-08 01:01N 59°30' E 010°27'714.2
2017-Dec-08 00:30N 59°37' E 010°25'713.5
2017-Dec-08 00:00N 59°43' E 010°19'3 4.9
2017-Dec-07 23:28N 59°44' E 010°14'0 0.0
2017-Dec-07 22:58N 59°44' E 010°14'0 0.0
2017-Dec-07 22:28N 59°44' E 010°14'0 0.0
2017-Dec-07 21:58N 59°44' E 010°14'0 0.0
2017-Dec-07 21:30N 59°44' E 010°14'0 0.0
2017-Dec-07 21:00N 59°44' E 010°14'0 0.0
2017-Dec-07 20:30N 59°44' E 010°14'0 0.0
2017-Dec-07 20:00N 59°44' E 010°14'0 0.0
2017-Dec-07 19:30N 59°44' E 010°14'0 0.3
2017-Dec-07 19:00N 59°44' E 010°14'613.3
2017-Dec-07 18:30N 59°40' E 010°24'611.9
2017-Dec-07 18:00N 59°34' E 010°25'917.1
2017-Dec-07 17:30N 59°27' E 010°33'1020.9
2017-Dec-07 17:00N 59°16' E 010°38'1019.6
2017-Dec-07 16:30N 59°07' E 010°40'917.4
2017-Dec-07 16:00N 58°58' E 010°42'917.5
2017-Dec-07 15:30N 58°49' E 010°44'917.9
2017-Dec-07 15:00N 58°40' E 010°46'1019.0
2017-Dec-07 14:31N 58°31' E 010°49'1019.1
2017-Dec-07 14:00N 58°22' E 010°56'918.4
2017-Dec-07 13:30N 58°14' E 011°03'918.7
2017-Dec-07 13:00N 58°05' E 011°11'919.0
2017-Dec-07 12:30N 57°57' E 011°19'713.7
2017-Dec-07 12:00N 57°53' E 011°30'612.1
2017-Dec-07 11:30N 57°56' E 011°40'5 9.8
2017-Dec-07 11:00N 58°01' E 011°42'0 0.0
2017-Dec-07 10:30N 58°01' E 011°42'0 0.0
2017-Dec-07 10:00N 58°01' E 011°42'0 0.0
2017-Dec-07 09:30N 58°01' E 011°42'0 0.0
2017-Dec-07 09:00N 58°01' E 011°42'0 0.0
2017-Dec-07 08:30N 58°01' E 011°42'0 0.0
2017-Dec-07 08:00N 58°01' E 011°42'0 0.0
2017-Dec-07 07:30N 58°01' E 011°42'0 0.0
2017-Dec-07 07:00N 58°01' E 011°42'0 0.0
2017-Dec-07 06:30N 58°01' E 011°42'0 0.0
2017-Dec-07 06:00N 58°01' E 011°42'0 0.0
2017-Dec-07 05:30N 58°01' E 011°42'0 0.8
2017-Dec-07 05:00N 58°00' E 011°42'510.3
2017-Dec-07 04:30N 57°55' E 011°38'714.5
2017-Dec-07 04:00N 57°51' E 011°27'918.0
2017-Dec-07 03:30N 57°51' E 011°10'4 8.4
2017-Dec-07 03:00N 57°47' E 011°13'3 5.4
2017-Dec-07 02:30N 57°50' E 011°14'510.2
2017-Dec-07 02:00N 57°55' E 011°13'3 6.6
2017-Dec-07 01:30N 57°55' E 011°07'612.1
2017-Dec-07 01:01N 57°51' E 010°58'612.2
2017-Dec-07 00:30N 57°51' E 010°46'612.0
2017-Dec-07 00:00N 57°50' E 010°35'612.4
2017-Dec-06 23:30N 57°48' E 010°24'712.5
2017-Dec-06 22:56N 57°46' E 010°12'2713.5
2017-Dec-06 20:55N 57°34' E 009°25'  
2017-Dec-04 10:28N 59°53' E 010°46'0 0.0
2017-Dec-04 09:58N 59°53' E 010°46'0 0.0
2017-Dec-04 09:28N 59°53' E 010°46'0 0.0
2017-Dec-04 08:58N 59°53' E 010°46'0 0.0
2017-Dec-04 08:30N 59°53' E 010°46'0 0.0
2017-Dec-04 08:00N 59°53' E 010°46'0 0.0
2017-Dec-04 07:30N 59°53' E 010°46'0 0.0
2017-Dec-04 07:00N 59°53' E 010°46'0 0.0
2017-Dec-04 06:30N 59°53' E 010°46'0 0.0
2017-Dec-04 06:00N 59°53' E 010°46'0 0.0
2017-Dec-04 05:30N 59°53' E 010°46'0 0.0
2017-Dec-04 05:00N 59°53' E 010°46'0 0.0
2017-Dec-04 04:30N 59°53' E 010°46'4 7.7
2017-Dec-04 04:00N 59°52' E 010°39'715.0
2017-Dec-04 03:31N 59°45' E 010°34'612.7
2017-Dec-04 03:00N 59°39' E 010°37'918.2
2017-Dec-04 02:30N 59°30' E 010°35'918.4
2017-Dec-04 02:00N 59°20' E 010°36'918.6
2017-Dec-04 01:30N 59°11' E 010°39'918.5
2017-Dec-04 01:00N 59°02' E 010°35'714.4
2017-Dec-04 00:30N 58°56' E 010°28'713.5
2017-Dec-04 00:00N 58°50' E 010°21'714.4
2017-Dec-03 23:30N 58°44' E 010°13'714.6
2017-Dec-03 23:01N 58°39' E 010°05'20512.7
2017-Dec-03 06:54N 55°34' E 007°23'512.0
2017-Dec-03 06:30N 55°29' E 007°23'612.2
2017-Dec-03 06:01N 55°23' E 007°24'612.4
2017-Dec-03 05:30N 55°17' E 007°25'612.6
2017-Dec-03 05:00N 55°10' E 007°25'612.8
2017-Dec-03 04:31N 55°04' E 007°26'612.9
2017-Dec-03 04:00N 54°57' E 007°27'713.5
2017-Dec-03 03:31N 54°51' E 007°27'713.4
2017-Dec-03 03:00N 54°44' E 007°28'713.6
2017-Dec-03 02:31N 54°37' E 007°29'4613.2
2017-Dec-02 23:04N 53°53' E 007°48'112.8
2017-Dec-02 23:00N 53°53' E 007°49'612.9
2017-Dec-02 22:30N 53°51' E 007°60'816.7
2017-Dec-02 22:00N 53°46' E 008°11'816.4
2017-Dec-02 21:30N 53°41' E 008°22'815.6
2017-Dec-02 21:00N 53°36' E 008°31'3 5.3
2017-Dec-02 20:30N 53°33' E 008°34'0 0.1
2017-Dec-02 20:00N 53°34' E 008°34'0 1.0
2017-Dec-02 19:30N 53°34' E 008°34'0 0.0
2017-Dec-02 19:00N 53°34' E 008°34'0 0.0
2017-Dec-02 18:30N 53°34' E 008°34'0 0.0
2017-Dec-02 18:00N 53°34' E 008°34'0 0.0
2017-Dec-02 17:30N 53°34' E 008°34'0 0.0
2017-Dec-02 17:00N 53°34' E 008°34'0 0.0
2017-Dec-02 16:30N 53°34' E 008°34'0 0.0
2017-Dec-02 16:00N 53°34' E 008°34'0 0.0
2017-Dec-02 15:30N 53°34' E 008°34'0 0.0
2017-Dec-02 15:00N 53°34' E 008°34'0 0.0
2017-Dec-02 14:30N 53°34' E 008°34'0 0.0
2017-Dec-02 14:01N 53°34' E 008°34'0 0.0
2017-Dec-02 13:30N 53°34' E 008°34'0 0.0
2017-Dec-02 13:00N 53°34' E 008°34'0 0.0
2017-Dec-02 12:30N 53°34' E 008°34'0 0.0
2017-Dec-02 12:00N 53°34' E 008°34'0 0.0
2017-Dec-02 11:30N 53°34' E 008°34'0 0.0
2017-Dec-02 11:00N 53°34' E 008°34'1 1.2
2017-Dec-02 10:30N 53°34' E 008°33'0 0.7
2017-Dec-02 10:00N 53°35' E 008°34'0 0.0
2017-Dec-02 09:30N 53°35' E 008°34'0 0.0
2017-Dec-02 09:00N 53°35' E 008°34'0 0.0
2017-Dec-02 08:30N 53°35' E 008°34'0 0.0
2017-Dec-02 08:00N 53°35' E 008°34'0 0.0
2017-Dec-02 07:30N 53°35' E 008°34'0 0.0
2017-Dec-02 07:00N 53°35' E 008°34'0 0.0
2017-Dec-02 06:30N 53°35' E 008°34'0 0.0
2017-Dec-02 06:00N 53°35' E 008°34'0 0.0
2017-Dec-02 05:30N 53°35' E 008°34'0 0.0
2017-Dec-02 05:00N 53°35' E 008°34'0 0.8
2017-Dec-02 04:31N 53°34' E 008°33'0 0.5
2017-Dec-02 04:00N 53°34' E 008°33'2 4.7
2017-Dec-02 03:30N 53°36' E 008°31'510.6
2017-Dec-02 03:00N 53°39' E 008°24'612.7
2017-Dec-02 02:30N 53°44' E 008°16'815.5
2017-Dec-02 02:00N 53°49' E 008°06'816.4
2017-Dec-02 01:30N 53°52' E 007°53'613.1
2017-Dec-02 01:00N 53°54' E 007°43'5211.7
2017-Dec-01 20:35N 54°44' E 007°25'216.0
2017-Dec-01 20:29N 54°46' E 007°25'510.0
2017-Dec-01 20:00N 54°51' E 007°25'814.5
2017-Dec-01 19:27N 54°59' E 007°25'511.6
2017-Dec-01 18:59N 55°04' E 007°24'713.4
2017-Dec-01 18:29N 55°11' E 007°24'713.5
2017-Dec-01 18:00N 55°17' E 007°23'813.7
2017-Dec-01 17:26N 55°25' E 007°23'613.4
2017-Dec-01 17:00N 55°31' E 007°22'612.7
2017-Dec-01 16:30N 55°37' E 007°22'  
Track history (hours):
 
Tides and Currents Weather Stations Pressure Air Temp Water Temp Dewpoint Dewpoint Depression Visibility Wind Speed Wind Dir Waves Ship Positions

Autopride

Last reported at 2017-Dec-11 09:30 UTC. Time now 2017-Dec-11 09:46 UTC.
Position N 59°53' E 010°46'.

Length 125 m; draft 5.7 m.

Type: Cargo ship. MMSI: 255801560.

Date/timePositionNaut miles runAvg speedWind from/ knotsBaromVisibWave heightAir tempDewpointWater temp
2017-Dec-11 09:30N 59°53' E 010°46'0 0.0
2017-Dec-11 09:00N 59°53' E 010°46'0 0.0
2017-Dec-11 08:30N 59°53' E 010°46'0 0.0
2017-Dec-11 08:00N 59°53' E 010°46'0 0.0
2017-Dec-11 07:30N 59°53' E 010°46'0 0.0
2017-Dec-11 07:01N 59°53' E 010°46'0 0.0
2017-Dec-11 06:30N 59°53' E 010°46'0 0.0
2017-Dec-11 06:00N 59°53' E 010°46'0 0.0
2017-Dec-11 05:30N 59°53' E 010°46'0 0.0
2017-Dec-11 05:00N 59°53' E 010°46'0 0.0
2017-Dec-11 04:30N 59°53' E 010°46'4 7.5
2017-Dec-11 04:00N 59°52' E 010°39'815.5
2017-Dec-11 03:30N 59°45' E 010°34'713.2
2017-Dec-11 03:01N 59°38' E 010°38'917.8
2017-Dec-11 02:31N 59°30' E 010°35'918.0
2017-Dec-11 02:01N 59°21' E 010°36'918.5
2017-Dec-11 01:31N 59°12' E 010°39'918.5
2017-Dec-11 01:01N 59°03' E 010°35'713.6
2017-Dec-11 00:30N 58°57' E 010°28'611.6
2017-Dec-11 00:00N 58°52' E 010°22'611.9
2017-Dec-10 23:30N 58°47' E 010°16'611.7
2017-Dec-10 23:00N 58°42' E 010°09'612.3
2017-Dec-10 22:30N 58°37' E 010°02'3911.2
2017-Dec-10 19:01N 58°06' E 009°19'312.5
2017-Dec-10 18:48N 58°04' E 009°14'412.4
2017-Dec-10 18:29N 58°02' E 009°08'15211.6
2017-Dec-10 05:27N 55°42' E 007°23'916.9
2017-Dec-10 04:56N 55°33' E 007°21'1216.6
2017-Dec-10 04:11N 55°21' E 007°23'316.3
2017-Dec-10 04:00N 55°18' E 007°24'816.5
2017-Dec-10 03:30N 55°10' E 007°25'816.4
2017-Dec-10 03:00N 55°01' E 007°25'816.3
2017-Dec-10 02:30N 54°53' E 007°26'1116.1
2017-Dec-10 01:51N 54°43' E 007°28'5115.2
2017-Dec-09 22:31N 53°53' E 007°47'015.5
2017-Dec-09 22:30N 53°53' E 007°47'815.5
2017-Dec-09 22:00N 53°51' E 008°00'815.4
2017-Dec-09 21:30N 53°46' E 008°10'1019.4
2017-Dec-09 21:00N 53°40' E 008°23'917.9
2017-Dec-09 20:30N 53°34' E 008°33'1 1.2
2017-Dec-09 20:00N 53°33' E 008°34'1 0.9
2017-Dec-09 19:28N 53°34' E 008°34'0 0.0
2017-Dec-09 18:58N 53°34' E 008°34'0 0.0
2017-Dec-09 18:28N 53°34' E 008°34'0 0.0
2017-Dec-09 17:58N 53°34' E 008°34'0 0.0
2017-Dec-09 17:25N 53°34' E 008°34'0 0.0
2017-Dec-09 16:58N 53°34' E 008°34'0 0.0
2017-Dec-09 16:28N 53°34' E 008°34'0 0.0
2017-Dec-09 15:58N 53°34' E 008°34'0 0.0
2017-Dec-09 15:28N 53°34' E 008°34'0 0.0
2017-Dec-09 14:58N 53°34' E 008°34'0 0.0
2017-Dec-09 14:28N 53°34' E 008°34'0 0.0
2017-Dec-09 13:58N 53°34' E 008°34'0 0.0
2017-Dec-09 13:28N 53°34' E 008°34'0 0.0
2017-Dec-09 13:00N 53°34' E 008°34'0 0.0
2017-Dec-09 12:30N 53°34' E 008°34'0 0.0
2017-Dec-09 12:00N 53°34' E 008°34'0 0.0
2017-Dec-09 11:30N 53°34' E 008°34'0 0.0
2017-Dec-09 11:00N 53°34' E 008°34'0 0.0
2017-Dec-09 10:30N 53°34' E 008°34'0 0.0
2017-Dec-09 10:01N 53°34' E 008°34'0 0.0
2017-Dec-09 09:30N 53°34' E 008°34'0 0.0
2017-Dec-09 09:00N 53°34' E 008°34'0 0.0
2017-Dec-09 08:30N 53°34' E 008°34'0 0.0
2017-Dec-09 08:00N 53°34' E 008°34'0 0.0
2017-Dec-09 07:30N 53°34' E 008°34'1 1.0
2017-Dec-09 07:00N 53°33' E 008°34'1 1.7
2017-Dec-09 06:30N 53°34' E 008°33'713.8
2017-Dec-09 06:00N 53°39' E 008°24'816.7
2017-Dec-09 05:31N 53°44' E 008°14'713.5
2017-Dec-09 05:00N 53°49' E 008°06'816.0
2017-Dec-09 04:30N 53°52' E 007°53'815.9
2017-Dec-09 04:00N 53°55' E 007°40'5112.1
2017-Dec-08 23:49N 54°45' E 007°25'512.3
2017-Dec-08 23:24N 54°50' E 007°25'512.5
2017-Dec-08 23:00N 54°55' E 007°25'612.7
2017-Dec-08 22:30N 55°01' E 007°25'612.6
2017-Dec-08 22:00N 55°07' E 007°25'612.5
2017-Dec-08 21:30N 55°14' E 007°24'612.2
2017-Dec-08 21:01N 55°20' E 007°23'612.2
2017-Dec-08 20:30N 55°26' E 007°22'611.9
2017-Dec-08 20:01N 55°32' E 007°21'711.8
2017-Dec-08 19:27N 55°38' E 007°21'612.0
2017-Dec-08 18:59N 55°44' E 007°24'612.1
2017-Dec-08 18:30N 55°49' E 007°26'812.1
2017-Dec-08 17:52N 55°57' E 007°29'512.0
2017-Dec-08 17:29N 56°01' E 007°31'17414.0
2017-Dec-08 05:01N 58°33' E 010°08'014.1
2017-Dec-08 05:00N 58°34' E 010°08'714.1
2017-Dec-08 04:30N 58°39' E 010°16'713.4
2017-Dec-08 04:01N 58°45' E 010°23'714.7
2017-Dec-08 03:30N 58°52' E 010°28'713.5
2017-Dec-08 03:00N 58°58' E 010°32'713.5
2017-Dec-08 02:30N 59°05' E 010°36'815.9
2017-Dec-08 02:00N 59°13' E 010°38'917.7
2017-Dec-08 01:31N 59°21' E 010°34'918.3
2017-Dec-08 01:01N 59°30' E 010°27'714.2
2017-Dec-08 00:30N 59°37' E 010°25'713.5
2017-Dec-08 00:00N 59°43' E 010°19'3 4.9
2017-Dec-07 23:28N 59°44' E 010°14'0 0.0
2017-Dec-07 22:58N 59°44' E 010°14'0 0.0
2017-Dec-07 22:28N 59°44' E 010°14'0 0.0
2017-Dec-07 21:58N 59°44' E 010°14'0 0.0
2017-Dec-07 21:30N 59°44' E 010°14'0 0.0
2017-Dec-07 21:00N 59°44' E 010°14'0 0.0
2017-Dec-07 20:30N 59°44' E 010°14'0 0.0
2017-Dec-07 20:00N 59°44' E 010°14'0 0.0
2017-Dec-07 19:30N 59°44' E 010°14'0 0.3
2017-Dec-07 19:00N 59°44' E 010°14'613.3
2017-Dec-07 18:30N 59°40' E 010°24'611.9
2017-Dec-07 18:00N 59°34' E 010°25'917.1
2017-Dec-07 17:30N 59°27' E 010°33'1020.9
2017-Dec-07 17:00N 59°16' E 010°38'1019.6
2017-Dec-07 16:30N 59°07' E 010°40'917.4
2017-Dec-07 16:00N 58°58' E 010°42'917.5
2017-Dec-07 15:30N 58°49' E 010°44'917.9
2017-Dec-07 15:00N 58°40' E 010°46'1019.0
2017-Dec-07 14:31N 58°31' E 010°49'1019.1
2017-Dec-07 14:00N 58°22' E 010°56'918.4
2017-Dec-07 13:30N 58°14' E 011°03'918.7
2017-Dec-07 13:00N 58°05' E 011°11'919.0
2017-Dec-07 12:30N 57°57' E 011°19'713.7
2017-Dec-07 12:00N 57°53' E 011°30'612.1
2017-Dec-07 11:30N 57°56' E 011°40'5 9.8
2017-Dec-07 11:00N 58°01' E 011°42'0 0.0
2017-Dec-07 10:30N 58°01' E 011°42'0 0.0
2017-Dec-07 10:00N 58°01' E 011°42'0 0.0
2017-Dec-07 09:30N 58°01' E 011°42'0 0.0
2017-Dec-07 09:00N 58°01' E 011°42'0 0.0
2017-Dec-07 08:30N 58°01' E 011°42'0 0.0
2017-Dec-07 08:00N 58°01' E 011°42'0 0.0
2017-Dec-07 07:30N 58°01' E 011°42'0 0.0
2017-Dec-07 07:00N 58°01' E 011°42'0 0.0
2017-Dec-07 06:30N 58°01' E 011°42'0 0.0
2017-Dec-07 06:00N 58°01' E 011°42'0 0.0
2017-Dec-07 05:30N 58°01' E 011°42'0 0.8
2017-Dec-07 05:00N 58°00' E 011°42'510.3
2017-Dec-07 04:30N 57°55' E 011°38'714.5
2017-Dec-07 04:00N 57°51' E 011°27'918.0
2017-Dec-07 03:30N 57°51' E 011°10'4 8.4
2017-Dec-07 03:00N 57°47' E 011°13'3 5.4
2017-Dec-07 02:30N 57°50' E 011°14'510.2
2017-Dec-07 02:00N 57°55' E 011°13'3 6.6
2017-Dec-07 01:30N 57°55' E 011°07'612.1
2017-Dec-07 01:01N 57°51' E 010°58'612.2
2017-Dec-07 00:30N 57°51' E 010°46'612.0
2017-Dec-07 00:00N 57°50' E 010°35'612.4
2017-Dec-06 23:30N 57°48' E 010°24'712.5
2017-Dec-06 22:56N 57°46' E 010°12'2713.5
2017-Dec-06 20:55N 57°34' E 009°25'  
2017-Dec-04 10:28N 59°53' E 010°46'0 0.0
2017-Dec-04 09:58N 59°53' E 010°46'0 0.0
2017-Dec-04 09:28N 59°53' E 010°46'0 0.0
2017-Dec-04 08:58N 59°53' E 010°46'0 0.0
2017-Dec-04 08:30N 59°53' E 010°46'0 0.0
2017-Dec-04 08:00N 59°53' E 010°46'0 0.0
2017-Dec-04 07:30N 59°53' E 010°46'0 0.0
2017-Dec-04 07:00N 59°53' E 010°46'0 0.0
2017-Dec-04 06:30N 59°53' E 010°46'0 0.0
2017-Dec-04 06:00N 59°53' E 010°46'0 0.0
2017-Dec-04 05:30N 59°53' E 010°46'0 0.0
2017-Dec-04 05:00N 59°53' E 010°46'0 0.0
2017-Dec-04 04:30N 59°53' E 010°46'4 7.7
2017-Dec-04 04:00N 59°52' E 010°39'715.0
2017-Dec-04 03:31N 59°45' E 010°34'612.7
2017-Dec-04 03:00N 59°39' E 010°37'918.2
2017-Dec-04 02:30N 59°30' E 010°35'918.4
2017-Dec-04 02:00N 59°20' E 010°36'918.6
2017-Dec-04 01:30N 59°11' E 010°39'918.5
2017-Dec-04 01:00N 59°02' E 010°35'714.4
2017-Dec-04 00:30N 58°56' E 010°28'713.5
2017-Dec-04 00:00N 58°50' E 010°21'714.4
2017-Dec-03 23:30N 58°44' E 010°13'714.6
2017-Dec-03 23:01N 58°39' E 010°05'20512.7
2017-Dec-03 06:54N 55°34' E 007°23'512.0
2017-Dec-03 06:30N 55°29' E 007°23'612.2
2017-Dec-03 06:01N 55°23' E 007°24'612.4
2017-Dec-03 05:30N 55°17' E 007°25'612.6
2017-Dec-03 05:00N 55°10' E 007°25'612.8
2017-Dec-03 04:31N 55°04' E 007°26'612.9
2017-Dec-03 04:00N 54°57' E 007°27'713.5
2017-Dec-03 03:31N 54°51' E 007°27'713.4
2017-Dec-03 03:00N 54°44' E 007°28'713.6
2017-Dec-03 02:31N 54°37' E 007°29'4613.2
2017-Dec-02 23:04N 53°53' E 007°48'112.8
2017-Dec-02 23:00N 53°53' E 007°49'612.9
2017-Dec-02 22:30N 53°51' E 007°60'816.7
2017-Dec-02 22:00N 53°46' E 008°11'816.4
2017-Dec-02 21:30N 53°41' E 008°22'815.6
2017-Dec-02 21:00N 53°36' E 008°31'3 5.3
2017-Dec-02 20:30N 53°33' E 008°34'0 0.1
2017-Dec-02 20:00N 53°34' E 008°34'0 1.0
2017-Dec-02 19:30N 53°34' E 008°34'0 0.0
2017-Dec-02 19:00N 53°34' E 008°34'0 0.0
2017-Dec-02 18:30N 53°34' E 008°34'0 0.0
2017-Dec-02 18:00N 53°34' E 008°34'0 0.0
2017-Dec-02 17:30N 53°34' E 008°34'0 0.0
2017-Dec-02 17:00N 53°34' E 008°34'0 0.0
2017-Dec-02 16:30N 53°34' E 008°34'0 0.0
2017-Dec-02 16:00N 53°34' E 008°34'0 0.0
2017-Dec-02 15:30N 53°34' E 008°34'0 0.0
2017-Dec-02 15:00N 53°34' E 008°34'0 0.0
2017-Dec-02 14:30N 53°34' E 008°34'0 0.0
2017-Dec-02 14:01N 53°34' E 008°34'0 0.0
2017-Dec-02 13:30N 53°34' E 008°34'0 0.0
2017-Dec-02 13:00N 53°34' E 008°34'0 0.0
2017-Dec-02 12:30N 53°34' E 008°34'0 0.0
2017-Dec-02 12:00N 53°34' E 008°34'0 0.0
2017-Dec-02 11:30N 53°34' E 008°34'0 0.0
2017-Dec-02 11:00N 53°34' E 008°34'1 1.2
2017-Dec-02 10:30N 53°34' E 008°33'0 0.7
2017-Dec-02 10:00N 53°35' E 008°34'0 0.0
2017-Dec-02 09:30N 53°35' E 008°34'0 0.0
2017-Dec-02 09:00N 53°35' E 008°34'0 0.0
2017-Dec-02 08:30N 53°35' E 008°34'0 0.0
2017-Dec-02 08:00N 53°35' E 008°34'0 0.0
2017-Dec-02 07:30N 53°35' E 008°34'0 0.0
2017-Dec-02 07:00N 53°35' E 008°34'0 0.0
2017-Dec-02 06:30N 53°35' E 008°34'0 0.0
2017-Dec-02 06:00N 53°35' E 008°34'0 0.0
2017-Dec-02 05:30N 53°35' E 008°34'0 0.0
2017-Dec-02 05:00N 53°35' E 008°34'0 0.8
2017-Dec-02 04:31N 53°34' E 008°33'0 0.5
2017-Dec-02 04:00N 53°34' E 008°33'2 4.7
2017-Dec-02 03:30N 53°36' E 008°31'510.6
2017-Dec-02 03:00N 53°39' E 008°24'612.7
2017-Dec-02 02:30N 53°44' E 008°16'815.5
2017-Dec-02 02:00N 53°49' E 008°06'816.4
2017-Dec-02 01:30N 53°52' E 007°53'613.1
2017-Dec-02 01:00N 53°54' E 007°43'5211.7
2017-Dec-01 20:35N 54°44' E 007°25'216.0
2017-Dec-01 20:29N 54°46' E 007°25'510.0
2017-Dec-01 20:00N 54°51' E 007°25'814.5
2017-Dec-01 19:27N 54°59' E 007°25'511.6
2017-Dec-01 18:59N 55°04' E 007°24'713.4
2017-Dec-01 18:29N 55°11' E 007°24'713.5
2017-Dec-01 18:00N 55°17' E 007°23'813.7
2017-Dec-01 17:26N 55°25' E 007°23'613.4
2017-Dec-01 17:00N 55°31' E 007°22'612.7
2017-Dec-01 16:30N 55°37' E 007°22'  

Dump ship's entire track history